createdAt,value
2022-08-27T00:00:22.323Z,100756.25
2022-08-27T00:05:24.302Z,100760.72
2022-08-27T00:10:27.785Z,100756.28
2022-08-27T00:15:30.942Z,100735.22
2022-08-27T00:20:32.857Z,100738.72
2022-08-27T00:25:34.795Z,100736.97
2022-08-27T00:30:36.523Z,100729.03
2022-08-27T00:35:38.874Z,100721.09
2022-08-27T00:40:42.383Z,100721.06
2022-08-27T00:45:46.492Z,100718.34
2022-08-27T00:50:55.354Z,100715.63
2022-08-27T00:56:29.441Z,100708.56
2022-08-27T01:01:35.921Z,100669.16
2022-08-27T01:06:38.014Z,100685.81
2022-08-27T01:11:40.028Z,100720.84
2022-08-27T01:16:51.626Z,100705.94
2022-08-27T01:22:34.584Z,100716.47
2022-08-27T01:27:37.682Z,100735.78
2022-08-27T01:32:41.190Z,100720.84
2022-08-27T01:37:47.636Z,100716.47
2022-08-27T01:42:56.603Z,100724.31
2022-08-27T01:48:00.908Z,100714.59
2022-08-27T01:53:24.451Z,100740.09
2022-08-27T01:58:31.223Z,100728.63
2022-08-27T02:03:37.220Z,100726.06
2022-08-27T02:08:39.887Z,100733.91
2022-08-27T02:13:41.761Z,100738.28
2022-08-27T02:18:43.554Z,100725.09
2022-08-27T02:23:46.300Z,100725.09
2022-08-27T02:28:48.114Z,100731.28
2022-08-27T02:33:50.515Z,100717.22
2022-08-27T02:38:52.312Z,100718.13
2022-08-27T02:43:54.059Z,100731.28
2022-08-27T02:48:56.091Z,100738.31
2022-08-27T02:53:57.879Z,100741.00
2022-08-27T02:58:59.674Z,100741.84
2022-08-27T03:04:02.245Z,100733.97
2022-08-27T03:09:05.816Z,100755.16
2022-08-27T03:14:08.438Z,100750.78
2022-08-27T03:19:11.363Z,100757.88
2022-08-27T03:24:14.739Z,100757.88
2022-08-27T03:29:16.648Z,100755.22
2022-08-27T03:34:19.953Z,100759.63
2022-08-27T03:39:21.855Z,100746.50
2022-08-27T03:44:24.963Z,100749.94
2022-08-27T03:49:26.691Z,100736.84
2022-08-27T03:54:28.463Z,100734.25
2022-08-27T03:59:30.603Z,100736.88
2022-08-27T04:04:32.737Z,100733.41
2022-08-27T04:09:34.723Z,100738.63
2022-08-27T04:14:36.480Z,100733.41
2022-08-27T04:19:38.236Z,100738.69
2022-08-27T04:24:40.766Z,100735.13
2022-08-27T04:29:43.339Z,100729.88
2022-08-27T04:34:45.059Z,100745.69
2022-08-27T04:39:50.252Z,100757.09
2022-08-27T04:44:53.439Z,100758.84
2022-08-27T04:49:55.254Z,100742.19
2022-08-27T04:54:59.026Z,100748.34
2022-08-27T05:00:00.753Z,100759.78
2022-08-27T05:05:02.556Z,100760.66
2022-08-27T05:10:04.584Z,100758.84
2022-08-27T05:15:07.210Z,100765.88
2022-08-27T05:20:10.737Z,100743.94
2022-08-27T05:25:12.676Z,100751.75
2022-08-27T05:30:14.529Z,100742.13
2022-08-27T05:35:16.429Z,100756.09
2022-08-27T05:40:18.287Z,100745.56
2022-08-27T05:45:20.059Z,100746.47
2022-08-27T05:50:23.685Z,100726.28
2022-08-27T05:55:25.588Z,100742.88
2022-08-27T06:00:45.686Z,100755.13
2022-08-27T06:05:48.228Z,100722.72
2022-08-27T06:10:51.441Z,100746.34
2022-08-27T06:16:03.450Z,100749.81
2022-08-27T06:21:09.561Z,100757.69
2022-08-27T06:26:18.677Z,100766.50
2022-08-27T06:31:27.610Z,100763.84
2022-08-27T06:36:31.390Z,100762.97
2022-08-27T06:41:34.887Z,100762.06
2022-08-27T06:46:38.798Z,100762.06
2022-08-27T06:51:47.367Z,100766.50
2022-08-27T06:56:50.085Z,100768.25
2022-08-27T07:01:51.882Z,100784.09
2022-08-27T07:06:53.807Z,100781.44
2022-08-27T07:11:55.567Z,100775.28
2022-08-27T07:16:57.382Z,100791.13
2022-08-27T07:21:59.266Z,100797.28
2022-08-27T07:27:01.341Z,100796.47
2022-08-27T07:32:04.370Z,100799.09
2022-08-27T07:37:06.349Z,100797.38
2022-08-27T07:42:26.879Z,100788.53
2022-08-27T07:47:28.695Z,100794.66
2022-08-27T07:52:30.461Z,100798.16
2022-08-27T07:57:32.855Z,100791.97
2022-08-27T08:02:35.151Z,100796.34
2022-08-27T08:07:38.509Z,100794.53
2022-08-27T08:12:40.980Z,100797.16
2022-08-27T08:17:42.937Z,100796.25
2022-08-27T08:22:44.843Z,100793.63
2022-08-27T08:27:48.071Z,100804.97
2022-08-27T08:32:49.835Z,100796.16
2022-08-27T08:37:52.027Z,100803.09
2022-08-27T08:42:56.669Z,100777.56
2022-08-27T08:48:19.362Z,100774.78
2022-08-27T08:54:06.806Z,100750.22
2022-08-27T08:59:23.836Z,100760.72
2022-08-27T09:04:30.419Z,100752.78
2022-08-27T09:10:01.184Z,100782.53
2022-08-27T09:20:25.517Z,100765.53
2022-08-27T09:25:36.580Z,100739.09
2022-08-27T09:30:43.706Z,100739.91
2022-08-27T09:35:47.145Z,100751.97
2022-08-27T09:40:52.414Z,100739.28
2022-08-27T09:46:26.983Z,100744.06
2022-08-27T09:51:30.516Z,100744.72
2022-08-27T09:56:35.064Z,100759.47
2022-08-27T10:02:04.472Z,100754.19
2022-08-27T10:07:43.434Z,100782.25
2022-08-27T10:13:16.031Z,100776.97
2022-08-27T10:18:56.369Z,100783.84
2022-08-27T10:24:27.091Z,100774.94
2022-08-27T10:30:20.279Z,100780.91
2022-08-27T10:35:53.723Z,100777.16
2022-08-27T10:41:33.500Z,100785.66
2022-08-27T10:47:10.895Z,100788.16
2022-08-27T10:53:00.875Z,100780.97
2022-08-27T10:58:34.894Z,100787.22
2022-08-27T11:03:51.942Z,100778.53
2022-08-27T11:09:08.170Z,100789.25
2022-08-27T11:14:50.737Z,100785.81
2022-08-27T11:20:12.003Z,100791.47
2022-08-27T11:25:53.453Z,100798.53
2022-08-27T11:32:00.069Z,100790.66
2022-08-27T11:37:34.825Z,100798.25
2022-08-27T11:42:51.754Z,100796.63
2022-08-27T11:47:58.610Z,100789.75
2022-08-27T11:53:07.611Z,100795.09
2022-08-27T11:58:18.505Z,100803.16
2022-08-27T12:03:20.118Z,100800.53
2022-08-27T12:08:21.851Z,100803.97
2022-08-27T12:13:38.147Z,100785.38
2022-08-27T12:19:20.161Z,100779.03
2022-08-27T12:25:08.068Z,100787.72
2022-08-27T12:30:52.025Z,100779.44
2022-08-27T12:35:59.095Z,100766.69
2022-08-27T12:41:09.051Z,100764.41
2022-08-27T12:46:18.916Z,100774.16
2022-08-27T12:51:40.016Z,100761.91
2022-08-27T12:57:35.506Z,100761.72
2022-08-27T13:03:15.547Z,100760.13
2022-08-27T13:08:29.954Z,100755.75
2022-08-27T13:13:31.668Z,100746.56
2022-08-27T13:18:38.228Z,100743.31
2022-08-27T13:24:02.567Z,100726.47
2022-08-27T13:29:09.207Z,100716.69
2022-08-27T13:34:23.998Z,100723.63
2022-08-27T13:39:28.097Z,100714.94
2022-08-27T13:45:03.722Z,100697.09
2022-08-27T13:50:25.657Z,100719.25
2022-08-27T13:55:30.429Z,100726.16
2022-08-27T14:00:36.515Z,100731.09
2022-08-27T14:05:48.556Z,100735.91
2022-08-27T14:11:09.635Z,100738.91
2022-08-27T14:16:31.631Z,100749.00
2022-08-27T14:21:36.692Z,100744.03
2022-08-27T14:26:38.428Z,100746.94
2022-08-27T14:31:40.294Z,100765.84
2022-08-27T14:36:43.795Z,100778.69
2022-08-27T14:41:45.652Z,100800.13
2022-08-27T14:46:50.348Z,100820.16
2022-08-27T14:51:52.423Z,100818.91
2022-08-27T14:56:55.331Z,100821.06
2022-08-27T15:01:59.575Z,100826.72
2022-08-27T15:07:01.639Z,100838.41
2022-08-27T15:12:04.351Z,100833.22
2022-08-27T15:17:10.982Z,100853.38
2022-08-27T15:22:34.299Z,100865.78
2022-08-27T15:27:39.104Z,100850.00
2022-08-27T15:32:47.491Z,100864.06
2022-08-27T15:37:49.828Z,100850.81
2022-08-27T15:43:05.479Z,100840.22
2022-08-27T15:48:07.372Z,100853.38
2022-08-27T15:53:10.215Z,100839.31
2022-08-27T15:58:12.969Z,100836.66
2022-08-27T16:03:16.723Z,100830.63
2022-08-27T16:08:18.446Z,100831.50
2022-08-27T16:13:20.574Z,100833.28
2022-08-27T16:18:32.394Z,100833.28
2022-08-27T16:23:35.045Z,100834.28
2022-08-27T16:28:36.772Z,100848.41
2022-08-27T16:33:40.563Z,100837.03
2022-08-27T16:38:42.275Z,100841.47
2022-08-27T16:43:44.881Z,100837.09
2022-08-27T16:49:04.982Z,100839.81
2022-08-27T16:54:07.461Z,100853.94
2022-08-27T16:59:13.085Z,100853.09
2022-08-27T17:04:23.932Z,100847.00
2022-08-27T17:09:30.214Z,100851.44
2022-08-27T17:14:37.828Z,100843.56
2022-08-27T17:19:40.189Z,100869.94
2022-08-27T17:24:42.065Z,100864.66
2022-08-27T17:29:43.756Z,100869.09
2022-08-27T17:34:45.472Z,100864.69
2022-08-27T17:40:10.852Z,100863.84
2022-08-27T17:45:13.025Z,100875.34
2022-08-27T17:50:14.853Z,100882.38
2022-08-27T17:55:16.696Z,100892.03
2022-08-27T18:00:18.422Z,100889.47
2022-08-27T18:05:24.215Z,100903.59
2022-08-27T18:10:36.462Z,100893.13
2022-08-27T18:15:41.454Z,100904.59
2022-08-27T18:20:43.235Z,100909.03
2022-08-27T18:25:45.465Z,100910.81
2022-08-27T18:30:48.088Z,100905.63
2022-08-27T18:35:49.817Z,100917.91
2022-08-27T18:40:55.316Z,100895.97
2022-08-27T18:45:57.555Z,100928.47
2022-08-27T18:51:03.910Z,100923.22
2022-08-27T18:56:09.588Z,100921.50
2022-08-27T19:01:20.122Z,100923.25
2022-08-27T19:06:23.270Z,100914.47
2022-08-27T19:11:25.296Z,100913.56
2022-08-27T19:16:55.847Z,100918.84
2022-08-27T19:21:59.405Z,100930.25
2022-08-27T19:27:08.344Z,100918.91
2022-08-27T19:32:10.594Z,100925.06
2022-08-27T19:37:27.956Z,100912.81
2022-08-27T19:42:30.439Z,100928.66
2022-08-27T19:47:32.878Z,100948.84
2022-08-27T19:52:34.757Z,100948.03
2022-08-27T19:57:36.494Z,100949.78
2022-08-27T20:02:38.411Z,100953.31
2022-08-27T20:07:40.182Z,100967.31
2022-08-27T20:12:41.981Z,100959.47
2022-08-27T20:17:45.124Z,100972.66
2022-08-27T20:22:47.801Z,100983.22
2022-08-27T20:27:51.645Z,100977.06
2022-08-27T20:32:53.551Z,100975.31
2022-08-27T20:37:56.309Z,100973.56
2022-08-27T20:42:59.074Z,100981.50
2022-08-27T20:48:04.705Z,100981.50
2022-08-27T20:53:06.597Z,100977.97
2022-08-27T20:58:27.163Z,100980.59
2022-08-27T21:03:29.213Z,100986.78
2022-08-27T21:08:30.966Z,100993.81
2022-08-27T21:13:32.677Z,100993.81
2022-08-27T21:18:35.678Z,100998.22
2022-08-27T21:23:39.360Z,100985.00
2022-08-27T21:28:43.952Z,100987.66
2022-08-27T21:33:45.719Z,100966.59
2022-08-27T21:38:47.429Z,100990.31
2022-08-27T21:43:50.580Z,100993.84
2022-08-27T21:48:58.649Z,100981.53
2022-08-27T21:54:01.045Z,100973.63
2022-08-27T21:59:02.965Z,100978.91
2022-08-27T22:04:05.161Z,101000.00
2022-08-27T22:09:06.983Z,100985.97
2022-08-27T22:14:08.800Z,100994.78
2022-08-27T22:19:13.709Z,100999.16
2022-08-27T22:24:15.806Z,101003.59
2022-08-27T22:29:17.648Z,100993.06
2022-08-27T22:34:19.370Z,100993.06
2022-08-27T22:39:21.139Z,100999.22
2022-08-27T22:44:25.195Z,100998.34
2022-08-27T22:49:26.926Z,100992.22
2022-08-27T22:54:28.645Z,100996.59
2022-08-27T22:59:30.410Z,101006.28
2022-08-27T23:04:53.699Z,101004.53
2022-08-27T23:09:54.106Z,101001.03
2022-08-27T23:14:55.865Z,100997.56
2022-08-27T23:19:57.573Z,100996.69
2022-08-27T23:25:17.574Z,100994.94
2022-08-27T23:30:20.065Z,101010.75
2022-08-27T23:35:25.641Z,100995.84
2022-08-27T23:40:27.531Z,101003.75
2022-08-27T23:45:30.199Z,101007.25
2022-08-27T23:50:34.085Z,101007.25
2022-08-27T23:55:37.706Z,101016.03
